createdAt,value
2019-01-19T00:00:16.115Z,6.86
2019-01-19T00:02:56.987Z,6.86
2019-01-19T00:06:11.340Z,6.77
2019-01-19T00:09:17.692Z,6.77
2019-01-19T00:12:23.805Z,6.74
2019-01-19T00:15:18.417Z,6.73
2019-01-19T00:18:34.695Z,6.74
2019-01-19T00:21:42.866Z,6.73
2019-01-19T00:25:00.878Z,6.72
2019-01-19T00:28:05.896Z,6.68
2019-01-19T00:31:06.017Z,6.70
2019-01-19T00:34:00.957Z,6.67
2019-01-19T00:37:09.715Z,6.66
2019-01-19T00:40:17.444Z,6.64
2019-01-19T00:43:15.335Z,6.65
2019-01-19T00:46:21.667Z,6.65
2019-01-19T00:49:10.826Z,6.64
2019-01-19T00:52:23.334Z,6.62
2019-01-19T00:55:24.482Z,6.66
2019-01-19T00:58:29.336Z,6.57
2019-01-19T01:01:53.457Z,6.49
2019-01-19T01:05:02.240Z,6.53
2019-01-19T01:08:01.862Z,6.48
2019-01-19T01:10:46.864Z,6.39
2019-01-19T01:13:36.666Z,6.34
2019-01-19T01:16:44.067Z,6.25
2019-01-19T01:20:01.965Z,6.19
2019-01-19T01:23:26.809Z,6.17
2019-01-19T01:26:46.498Z,6.14
2019-01-19T01:29:56.063Z,6.09
2019-01-19T01:33:08.142Z,5.99
2019-01-19T01:36:32.226Z,5.71
2019-01-19T01:39:41.610Z,5.85
2019-01-19T01:42:53.301Z,5.88
2019-01-19T01:46:00.968Z,5.81
2019-01-19T01:48:56.365Z,5.73
2019-01-19T01:52:19.011Z,5.81
2019-01-19T01:55:28.406Z,5.83
2019-01-19T01:58:43.926Z,5.90
2019-01-19T02:02:03.783Z,5.96
2019-01-19T02:05:15.643Z,5.94
2019-01-19T02:08:02.267Z,5.94
2019-01-19T02:11:10.822Z,6.04
2019-01-19T02:14:16.622Z,6.01
2019-01-19T02:17:28.403Z,6.03
2019-01-19T02:20:34.966Z,5.99
2019-01-19T02:23:28.807Z,6.00
2019-01-19T02:26:55.718Z,5.99
2019-01-19T02:29:56.534Z,6.07
2019-01-19T02:32:49.891Z,6.04
2019-01-19T02:36:25.793Z,6.04
2019-01-19T02:39:48.059Z,6.02
2019-01-19T02:43:07.185Z,5.99
2019-01-19T02:46:03.050Z,5.99
2019-01-19T02:49:02.120Z,6.04
2019-01-19T02:52:20.267Z,6.12
2019-01-19T02:55:27.693Z,5.98
2019-01-19T02:58:26.352Z,6.07
2019-01-19T03:01:40.052Z,5.98
2019-01-19T03:04:21.354Z,6.04
2019-01-19T03:07:39.736Z,6.09
2019-01-19T03:10:53.841Z,6.04
2019-01-19T03:13:58.146Z,6.02
2019-01-19T03:17:00.359Z,6.04
2019-01-19T03:19:57.536Z,6.05
2019-01-19T03:23:13.014Z,6.14
2019-01-19T03:26:43.359Z,6.16
2019-01-19T03:29:46.926Z,6.10
2019-01-19T03:32:53.276Z,6.13
2019-01-19T03:35:39.678Z,6.03
2019-01-19T03:38:40.395Z,5.99
2019-01-19T03:41:40.376Z,5.94
2019-01-19T03:44:57.891Z,5.92
2019-01-19T03:48:05.514Z,6.00
2019-01-19T03:51:07.236Z,5.99
2019-01-19T03:53:58.286Z,5.97
2019-01-19T03:57:08.260Z,5.92
2019-01-19T04:00:31.077Z,5.92
2019-01-19T04:04:02.388Z,5.80
2019-01-19T04:07:11.683Z,5.78
2019-01-19T04:10:21.132Z,5.79
2019-01-19T04:13:33.176Z,5.81
2019-01-19T04:16:43.039Z,5.83
2019-01-19T04:19:54.865Z,5.80
2019-01-19T04:22:48.098Z,5.74
2019-01-19T04:25:33.643Z,5.70
2019-01-19T04:28:06.341Z,5.69
2019-01-19T04:30:38.575Z,5.68
2019-01-19T04:33:10.509Z,5.66
2019-01-19T04:35:45.044Z,5.60
2019-01-19T04:38:17.145Z,5.64
2019-01-19T04:40:49.095Z,5.60
2019-01-19T04:43:21.090Z,5.60
2019-01-19T04:45:57.141Z,5.64
2019-01-19T04:48:30.488Z,5.59
2019-01-19T04:51:02.595Z,5.58
2019-01-19T04:53:34.826Z,5.64
2019-01-19T04:56:06.560Z,5.53
2019-01-19T04:58:38.497Z,5.55
2019-01-19T05:01:10.492Z,5.67
2019-01-19T05:03:41.639Z,5.59
2019-01-19T05:06:20.458Z,5.58
2019-01-19T05:08:52.562Z,5.55
2019-01-19T05:11:24.620Z,5.36
2019-01-19T05:13:58.205Z,5.56
2019-01-19T05:16:30.438Z,5.61
2019-01-19T05:19:01.622Z,5.55
2019-01-19T05:21:32.806Z,5.47
2019-01-19T05:24:04.960Z,5.40
2019-01-19T05:26:36.926Z,5.39
2019-01-19T05:29:08.219Z,5.36
2019-01-19T05:31:39.356Z,5.41
2019-01-19T05:34:10.516Z,5.43
2019-01-19T05:36:42.905Z,5.41
2019-01-19T05:39:14.949Z,5.41
2019-01-19T05:41:46.966Z,5.45
2019-01-19T05:44:18.174Z,5.39
2019-01-19T05:46:52.247Z,5.39
2019-01-19T05:49:24.194Z,5.37
2019-01-19T05:51:56.445Z,5.39
2019-01-19T05:54:28.515Z,5.31
2019-01-19T05:57:02.970Z,5.29
2019-01-19T05:59:35.026Z,5.30
2019-01-19T06:02:09.141Z,5.29
2019-01-19T06:04:40.237Z,5.29
2019-01-19T06:07:14.693Z,5.35
2019-01-19T06:09:45.937Z,5.26
2019-01-19T06:12:19.614Z,5.25
2019-01-19T06:14:51.807Z,5.22
2019-01-19T06:17:23.861Z,5.23
2019-01-19T06:19:55.597Z,5.09
2019-01-19T06:22:26.738Z,5.23
2019-01-19T06:24:58.941Z,5.19
2019-01-19T06:27:34.077Z,5.16
2019-01-19T06:30:09.511Z,5.17
2019-01-19T06:32:41.981Z,5.17
2019-01-19T06:35:13.236Z,5.13
2019-01-19T06:37:48.219Z,5.15
2019-01-19T06:40:20.325Z,5.21
2019-01-19T06:42:51.583Z,5.20
2019-01-19T06:45:25.829Z,5.18
2019-01-19T06:48:00.187Z,5.16
2019-01-19T06:50:32.164Z,5.09
2019-01-19T06:53:03.651Z,5.10
2019-01-19T06:55:37.126Z,5.11
2019-01-19T06:58:09.088Z,5.03
2019-01-19T07:00:41.210Z,4.97
2019-01-19T07:03:12.338Z,4.99
2019-01-19T07:05:43.598Z,4.91
2019-01-19T07:08:15.552Z,4.83
2019-01-19T07:11:00.879Z,4.85
2019-01-19T07:13:32.955Z,4.86
2019-01-19T07:16:08.668Z,4.87
2019-01-19T07:18:40.920Z,4.81
2019-01-19T07:21:12.987Z,4.64
2019-01-19T07:23:46.343Z,4.77
2019-01-19T07:26:19.507Z,4.86
2019-01-19T07:28:56.252Z,4.92
2019-01-19T07:31:28.245Z,5.06
2019-01-19T07:34:02.760Z,5.19
2019-01-19T07:36:36.417Z,5.30
2019-01-19T07:39:09.001Z,5.27
2019-01-19T07:41:40.991Z,5.36
2019-01-19T07:44:15.696Z,5.47
2019-01-19T07:46:47.186Z,5.57
2019-01-19T07:49:22.167Z,5.59
2019-01-19T07:51:54.247Z,5.59
2019-01-19T07:54:26.571Z,5.73
2019-01-19T07:56:57.722Z,5.82
2019-01-19T07:59:28.955Z,6.00
2019-01-19T08:02:02.636Z,6.25
2019-01-19T08:04:33.619Z,6.45
2019-01-19T08:07:06.037Z,6.63
2019-01-19T08:09:37.348Z,6.84
2019-01-19T08:12:08.473Z,6.91
2019-01-19T08:14:41.173Z,6.89
2019-01-19T08:17:12.659Z,6.81
2019-01-19T08:19:45.313Z,6.82
2019-01-19T08:22:16.582Z,6.92
2019-01-19T08:24:48.176Z,6.88
2019-01-19T08:27:19.639Z,6.86
2019-01-19T08:29:52.230Z,6.99
2019-01-19T08:32:27.408Z,6.99
2019-01-19T08:34:58.639Z,7.04
2019-01-19T08:37:33.183Z,7.07
2019-01-19T08:40:05.461Z,7.16
2019-01-19T08:42:40.998Z,7.41
2019-01-19T08:45:16.047Z,7.75
2019-01-19T08:47:48.138Z,8.02
2019-01-19T08:50:24.094Z,8.12
2019-01-19T08:52:56.698Z,8.26
2019-01-19T08:55:31.102Z,8.26
2019-01-19T08:58:03.475Z,8.18
2019-01-19T09:00:38.741Z,8.17
2019-01-19T09:03:12.175Z,8.23
2019-01-19T09:06:01.020Z,8.23
2019-01-19T09:08:32.194Z,8.28
2019-01-19T09:11:03.682Z,8.29
2019-01-19T09:13:35.271Z,8.28
2019-01-19T09:16:15.972Z,8.35
2019-01-19T09:18:51.139Z,8.54
2019-01-19T09:21:34.233Z,8.46
2019-01-19T09:24:17.564Z,8.49
2019-01-19T09:26:59.194Z,8.41
2019-01-19T09:29:26.279Z,8.41
2019-01-19T09:32:02.324Z,8.72
2019-01-19T09:34:36.251Z,8.86
2019-01-19T09:37:10.221Z,9.00
2019-01-19T09:39:43.011Z,8.81
2019-01-19T09:42:14.456Z,8.76
2019-01-19T09:44:50.232Z,8.66
2019-01-19T09:47:24.090Z,8.61
2019-01-19T09:50:02.790Z,8.52
2019-01-19T09:52:37.680Z,8.68
2019-01-19T09:55:15.633Z,8.69
2019-01-19T09:57:50.752Z,8.81
2019-01-19T10:00:35.484Z,8.93
2019-01-19T10:03:05.373Z,8.88
2019-01-19T10:05:43.853Z,9.11
2019-01-19T10:08:19.173Z,9.02
2019-01-19T10:10:53.167Z,8.89
2019-01-19T10:13:24.375Z,8.91
2019-01-19T10:16:01.197Z,8.89
2019-01-19T10:18:32.514Z,8.83
2019-01-19T10:21:08.419Z,8.84
2019-01-19T10:23:41.869Z,9.11
2019-01-19T10:26:12.243Z,9.54
2019-01-19T10:28:45.058Z,9.82
2019-01-19T10:31:17.467Z,10.18
2019-01-19T10:33:51.104Z,9.78
2019-01-19T10:36:22.643Z,9.59
2019-01-19T10:38:55.260Z,9.64
2019-01-19T10:41:26.805Z,9.73
2019-01-19T10:44:05.365Z,9.80
2019-01-19T10:46:36.511Z,10.10
2019-01-19T10:49:09.829Z,10.35
2019-01-19T10:51:41.404Z,10.33
2019-01-19T10:54:13.093Z,10.40
2019-01-19T10:56:51.616Z,10.46
2019-01-19T10:59:26.998Z,10.91
2019-01-19T11:01:58.731Z,10.91
2019-01-19T11:04:29.114Z,10.64
2019-01-19T11:07:03.370Z,10.85
2019-01-19T11:09:38.029Z,11.12
2019-01-19T11:12:13.400Z,11.24
2019-01-19T11:14:48.851Z,11.10
2019-01-19T11:17:22.770Z,11.12
2019-01-19T11:19:57.070Z,11.25
2019-01-19T11:22:28.629Z,11.07
2019-01-19T11:24:59.933Z,11.20
2019-01-19T11:27:45.277Z,11.27
2019-01-19T11:30:27.053Z,10.85
2019-01-19T11:32:59.141Z,10.92
2019-01-19T11:35:35.370Z,10.95
2019-01-19T11:38:20.205Z,10.92
2019-01-19T11:40:49.211Z,10.48
2019-01-19T11:43:20.237Z,10.89
2019-01-19T11:45:50.698Z,11.08
2019-01-19T11:48:21.174Z,11.11
2019-01-19T11:50:52.442Z,11.35
2019-01-19T11:53:24.361Z,11.32
2019-01-19T11:55:58.246Z,11.32
2019-01-19T11:58:34.695Z,11.27
2019-01-19T12:01:08.644Z,11.26
2019-01-19T12:03:41.197Z,11.14
2019-01-19T12:06:14.298Z,11.03
2019-01-19T12:08:48.652Z,11.05
2019-01-19T12:11:22.067Z,10.93
2019-01-19T12:13:55.473Z,11.01
2019-01-19T12:16:27.150Z,10.88
2019-01-19T12:19:04.471Z,11.13
2019-01-19T12:21:42.756Z,11.16
2019-01-19T12:24:13.941Z,10.98
2019-01-19T12:26:44.393Z,10.96
2019-01-19T12:29:23.221Z,10.88
2019-01-19T12:31:56.181Z,10.95
2019-01-19T12:34:34.896Z,11.01
2019-01-19T12:37:15.341Z,11.34
2019-01-19T12:39:49.518Z,11.50
2019-01-19T12:42:27.353Z,11.68
2019-01-19T12:44:58.704Z,11.69
2019-01-19T12:47:46.228Z,11.77
2019-01-19T12:50:52.561Z,11.89
2019-01-19T12:53:30.570Z,11.78
2019-01-19T12:57:08.283Z,12.03
2019-01-19T13:00:08.021Z,12.24
2019-01-19T13:02:56.754Z,12.17
2019-01-19T13:05:55.405Z,12.22
2019-01-19T13:08:34.562Z,12.13
2019-01-19T13:12:21.098Z,12.03
2019-01-19T13:15:27.968Z,11.94
2019-01-19T13:18:43.504Z,11.84
2019-01-19T13:22:03.223Z,11.93
2019-01-19T13:24:59.096Z,12.02
2019-01-19T13:27:51.281Z,11.82
2019-01-19T13:31:12.522Z,11.84
2019-01-19T13:34:32.495Z,12.10
2019-01-19T13:37:49.277Z,11.94
2019-01-19T13:40:58.475Z,11.94
2019-01-19T13:44:21.018Z,11.77
2019-01-19T13:47:22.272Z,11.79
2019-01-19T13:50:46.269Z,11.63
2019-01-19T13:53:50.376Z,11.73
2019-01-19T13:57:10.047Z,11.71
2019-01-19T14:00:43.659Z,11.66
2019-01-19T14:03:40.423Z,11.69
2019-01-19T14:07:12.703Z,11.54
2019-01-19T14:10:18.295Z,11.40
2019-01-19T14:13:44.851Z,11.34
2019-01-19T14:16:43.624Z,11.61
2019-01-19T14:19:57.807Z,11.67
2019-01-19T14:23:09.543Z,11.62
2019-01-19T14:26:49.077Z,11.67
2019-01-19T14:29:49.717Z,11.67
2019-01-19T14:32:50.604Z,11.52
2019-01-19T14:35:38.943Z,11.37
2019-01-19T14:38:37.113Z,11.32
2019-01-19T14:41:48.471Z,11.35
2019-01-19T14:45:13.926Z,11.24
2019-01-19T14:48:38.497Z,11.24
2019-01-19T14:52:02.203Z,11.04
2019-01-19T14:55:36.373Z,10.97
2019-01-19T14:58:35.593Z,10.98
2019-01-19T15:01:52.694Z,10.82
2019-01-19T15:05:04.447Z,10.75
2019-01-19T15:07:54.169Z,10.60
2019-01-19T15:11:14.535Z,10.63
2019-01-19T15:14:23.191Z,10.62
2019-01-19T15:17:33.195Z,10.56
2019-01-19T15:20:28.182Z,10.56
2019-01-19T15:23:36.000Z,10.66
2019-01-19T15:27:06.340Z,10.67
2019-01-19T15:30:00.457Z,10.52
2019-01-19T15:33:08.362Z,10.39
2019-01-19T15:36:25.410Z,10.36
2019-01-19T15:39:28.988Z,10.25
2019-01-19T15:42:30.253Z,10.28
2019-01-19T15:45:35.467Z,10.08
2019-01-19T15:49:09.033Z,9.96
2019-01-19T15:53:00.359Z,9.84
2019-01-19T15:56:20.315Z,9.69
2019-01-19T15:59:30.289Z,9.46
2019-01-19T16:02:57.003Z,9.33
2019-01-19T16:06:17.410Z,9.24
2019-01-19T16:09:27.473Z,9.15
2019-01-19T16:12:19.952Z,9.04
2019-01-19T16:15:15.849Z,8.97
2019-01-19T16:18:13.807Z,8.84
2019-01-19T16:21:27.288Z,8.73
2019-01-19T16:24:24.649Z,8.68
2019-01-19T16:27:27.863Z,8.57
2019-01-19T16:30:55.107Z,8.54
2019-01-19T16:33:50.900Z,8.52
2019-01-19T16:37:06.730Z,8.37
2019-01-19T16:40:17.124Z,8.47
2019-01-19T16:43:31.267Z,8.36
2019-01-19T16:46:44.887Z,8.11
2019-01-19T16:49:46.035Z,8.11
2019-01-19T16:52:38.971Z,7.99
2019-01-19T16:55:55.875Z,7.84
2019-01-19T16:58:52.588Z,7.82
2019-01-19T17:02:08.725Z,7.73
2019-01-19T17:05:22.283Z,7.73
2019-01-19T17:08:38.176Z,7.79
2019-01-19T17:11:50.066Z,7.77
2019-01-19T17:15:13.198Z,7.67
2019-01-19T17:18:28.585Z,7.65
2019-01-19T17:21:41.516Z,7.62
2019-01-19T17:25:05.155Z,7.66
2019-01-19T17:28:14.358Z,7.65
2019-01-19T17:31:27.464Z,7.64
2019-01-19T17:34:52.643Z,7.54
2019-01-19T17:37:36.755Z,7.51
2019-01-19T17:40:46.741Z,7.47
2019-01-19T17:43:42.740Z,7.54
2019-01-19T17:47:00.706Z,7.51
2019-01-19T17:50:01.800Z,7.48
2019-01-19T17:53:03.078Z,7.49
2019-01-19T17:56:14.507Z,7.38
2019-01-19T17:59:20.347Z,7.35
2019-01-19T18:02:35.095Z,7.35
2019-01-19T18:05:50.140Z,7.34
2019-01-19T18:08:47.526Z,7.31
2019-01-19T18:11:56.430Z,7.33
2019-01-19T18:15:16.748Z,7.38
2019-01-19T18:18:26.285Z,7.35
2019-01-19T18:21:27.171Z,7.33
2019-01-19T18:24:26.073Z,7.33
2019-01-19T18:27:45.736Z,7.29
2019-01-19T18:30:40.325Z,7.28
2019-01-19T18:33:44.519Z,7.17
2019-01-19T18:36:54.686Z,7.18
2019-01-19T18:39:57.164Z,7.14
2019-01-19T18:43:09.182Z,7.07
2019-01-19T18:46:13.714Z,7.01
2019-01-19T18:49:21.580Z,6.93
2019-01-19T18:52:39.231Z,6.95
2019-01-19T18:55:47.492Z,6.92
2019-01-19T18:59:06.033Z,6.73
2019-01-19T19:02:17.001Z,6.85
2019-01-19T19:05:35.122Z,6.90
2019-01-19T19:08:31.223Z,6.91
2019-01-19T19:11:54.787Z,6.91
2019-01-19T19:14:35.102Z,6.78
2019-01-19T19:17:57.558Z,6.77
2019-01-19T19:21:07.691Z,6.74
2019-01-19T19:24:07.670Z,6.75
2019-01-19T19:27:02.764Z,6.67
2019-01-19T19:30:15.101Z,6.72
2019-01-19T19:33:29.757Z,6.72
2019-01-19T19:36:49.428Z,6.74
2019-01-19T19:39:47.221Z,6.63
2019-01-19T19:43:25.977Z,6.52
2019-01-19T19:46:34.770Z,6.48
2019-01-19T19:49:48.401Z,6.52
2019-01-19T19:52:29.624Z,6.40
2019-01-19T19:55:12.531Z,6.40
2019-01-19T19:57:56.713Z,6.43
2019-01-19T20:01:03.608Z,6.44
2019-01-19T20:03:51.938Z,6.49
2019-01-19T20:10:26.051Z,6.43
2019-01-19T20:13:07.350Z,6.43
2019-01-19T20:16:21.261Z,6.47
2019-01-19T20:19:09.292Z,6.48
2019-01-19T20:22:10.965Z,6.36
2019-01-19T20:24:59.608Z,6.34
2019-01-19T20:27:37.231Z,6.31
2019-01-19T20:30:37.463Z,6.30
2019-01-19T20:36:38.301Z,6.29
2019-01-19T20:39:16.197Z,6.18
2019-01-19T20:41:58.394Z,6.20
2019-01-19T20:44:32.542Z,6.14
2019-01-19T20:47:13.944Z,6.18
2019-01-19T20:50:06.531Z,6.09
2019-01-19T20:52:48.224Z,6.12
2019-01-19T20:55:45.929Z,6.24
2019-01-19T20:58:18.324Z,6.25
2019-01-19T21:00:56.078Z,6.22
2019-01-19T21:03:33.035Z,6.17
2019-01-19T21:06:10.172Z,6.20
2019-01-19T21:08:46.778Z,6.28
2019-01-19T21:11:22.378Z,6.18
2019-01-19T21:13:53.496Z,6.17
2019-01-19T21:16:28.010Z,6.05
2019-01-19T21:19:15.828Z,6.03
2019-01-19T21:21:48.573Z,6.01
2019-01-19T21:24:28.930Z,6.13
2019-01-19T21:27:07.703Z,6.14
2019-01-19T21:29:51.968Z,6.06
2019-01-19T21:32:26.104Z,6.09
2019-01-19T21:35:00.244Z,6.08
2019-01-19T21:37:33.475Z,6.05
2019-01-19T21:40:09.184Z,6.01
2019-01-19T21:42:50.164Z,5.95
2019-01-19T21:45:35.312Z,6.01
2019-01-19T21:48:13.537Z,6.01
2019-01-19T21:50:51.627Z,6.00
2019-01-19T21:53:29.779Z,5.95
2019-01-19T21:56:03.234Z,6.03
2019-01-19T21:58:34.446Z,6.03
2019-01-19T22:01:06.788Z,6.03
2019-01-19T22:03:45.839Z,6.04
2019-01-19T22:06:17.057Z,5.82
2019-01-19T22:08:51.350Z,5.82
2019-01-19T22:11:27.720Z,5.90
2019-01-19T22:14:04.140Z,5.81
2019-01-19T22:16:48.835Z,5.82
2019-01-19T22:19:24.529Z,5.72
2019-01-19T22:22:09.345Z,5.67
2019-01-19T22:24:39.661Z,5.72
2019-01-19T22:27:18.219Z,5.71
2019-01-19T22:29:52.100Z,5.73
2019-01-19T22:32:32.655Z,5.68
2019-01-19T22:35:16.119Z,5.62
2019-01-19T22:38:17.369Z,5.57
2019-01-19T22:40:53.679Z,5.63
2019-01-19T22:43:34.060Z,5.60
2019-01-19T22:46:06.132Z,5.55
2019-01-19T22:48:42.674Z,5.61
2019-01-19T22:51:14.560Z,5.55
2019-01-19T22:53:50.284Z,5.48
2019-01-19T22:56:22.804Z,5.47
2019-01-19T22:59:01.912Z,5.50
2019-01-19T23:01:55.205Z,5.51
2019-01-19T23:04:26.887Z,5.45
2019-01-19T23:06:59.179Z,5.45
2019-01-19T23:09:33.922Z,5.39
2019-01-19T23:12:07.781Z,5.39
2019-01-19T23:14:47.446Z,5.45
2019-01-19T23:17:19.412Z,5.37
2019-01-19T23:19:57.786Z,5.46
2019-01-19T23:22:39.639Z,5.42
2019-01-19T23:25:15.113Z,5.42
2019-01-19T23:27:57.241Z,5.34
2019-01-19T23:30:32.344Z,5.31
2019-01-19T23:33:07.172Z,5.27
2019-01-19T23:35:41.438Z,5.34
2019-01-19T23:38:26.114Z,5.30
2019-01-19T23:40:58.032Z,5.23
2019-01-19T23:43:29.354Z,5.23
2019-01-19T23:46:08.862Z,5.23
2019-01-19T23:48:42.955Z,5.14
2019-01-19T23:51:15.353Z,5.15
2019-01-19T23:53:50.851Z,5.19
2019-01-19T23:56:22.846Z,5.10
2019-01-19T23:58:57.175Z,5.11
